Time;durP1;ratioP1;P1;durP2;ratioP2;P2;SDS_P1;SDS_P2;PMS_P1;PMS_P2;Temp;Humidity;BMP_temperature;BMP_pressure;BME280_temperature;BME280_humidity;BME280_pressure;Samples;Min_cycle;Max_cycle;Signal;HPM_P1;HPM_P2
2023/07/27 00:00:11;;;;;;;2.55;0.93;;;17.40;99.90;;;;;;4988997;28;20177;-79
2023/07/27 00:02:37;;;;;;;1.35;0.80;;;17.40;99.90;;;;;;4990223;28;20037;-79
2023/07/27 00:05:03;;;;;;;2.08;0.80;;;17.40;99.90;;;;;;4989799;28;20443;-79
2023/07/27 00:07:29;;;;;;;3.17;0.88;;;17.40;99.90;;;;;;4990880;28;20026;-82
2023/07/27 00:09:55;;;;;;;1.45;0.70;;;17.40;99.90;;;;;;4990722;28;20371;-78
2023/07/27 00:12:21;;;;;;;2.92;0.68;;;17.40;99.90;;;;;;4990713;28;20118;-78
2023/07/27 00:14:48;;;;;;;1.33;0.60;;;17.40;99.90;;;;;;4989594;28;20048;-79
2023/07/27 00:17:14;;;;;;;1.00;0.55;;;17.30;99.90;;;;;;4990440;28;20042;-78
2023/07/27 00:19:39;;;;;;;1.58;0.47;;;17.40;99.90;;;;;;4988446;28;20113;-78
2023/07/27 00:22:05;;;;;;;0.52;0.52;;;17.40;99.90;;;;;;4990656;28;20430;-78
2023/07/27 00:24:31;;;;;;;1.17;0.40;;;17.40;99.90;;;;;;4989917;28;20038;-82
2023/07/27 00:26:57;;;;;;;0.75;0.30;;;17.40;99.90;;;;;;4990193;28;20027;-79
2023/07/27 00:29:23;;;;;;;0.47;0.35;;;17.30;99.90;;;;;;4993049;28;20105;-79
2023/07/27 00:31:50;;;;;;;3.25;0.40;;;17.40;99.90;;;;;;4993364;28;20027;-79
2023/07/27 00:34:16;;;;;;;0.90;0.40;;;17.40;99.90;;;;;;4994179;28;20033;-79
2023/07/27 00:36:42;;;;;;;0.68;0.30;;;17.40;99.90;;;;;;4993300;28;20467;-80
2023/07/27 00:39:07;;;;;;;1.75;0.40;;;17.40;99.90;;;;;;4993716;28;20064;-78
2023/07/27 00:41:33;;;;;;;0.30;0.30;;;17.40;99.90;;;;;;4993298;28;20109;-79
2023/07/27 00:43:59;;;;;;;0.40;0.20;;;17.40;99.90;;;;;;4992626;28;20395;-78
2023/07/27 00:46:25;;;;;;;0.40;0.30;;;17.30;99.90;;;;;;4993898;28;20030;-79
2023/07/27 00:48:51;;;;;;;3.50;0.40;;;17.30;99.90;;;;;;4991913;28;20095;-78
2023/07/27 00:51:17;;;;;;;0.60;0.40;;;17.30;99.90;;;;;;4993382;28;20031;-79
2023/07/27 00:53:43;;;;;;;0.45;0.40;;;17.30;99.90;;;;;;4993316;28;20048;-78
2023/07/27 00:56:09;;;;;;;0.40;0.40;;;17.30;99.90;;;;;;4992262;28;20125;-78
2023/07/27 00:58:36;;;;;;;2.47;0.40;;;17.30;99.90;;;;;;4992954;28;20211;-78
2023/07/27 01:01:03;;;;;;;1.23;0.32;;;17.40;99.90;;;;;;4992239;28;20032;-78
2023/07/27 01:03:28;;;;;;;0.65;0.20;;;17.30;99.90;;;;;;4993520;28;20049;-78
2023/07/27 01:05:54;;;;;;;1.90;0.40;;;17.30;99.90;;;;;;4993498;28;20038;-78
2023/07/27 01:08:20;;;;;;;3.83;0.28;;;17.30;99.90;;;;;;4993495;28;20097;-79
2023/07/27 01:10:57;;;;;;;0.35;0.30;;;17.30;99.90;;;;;;4993276;28;20035;-79
2023/07/27 01:13:28;;;;;;;0.32;0.28;;;17.30;99.90;;;;;;4993837;28;20150;-79
2023/07/27 01:15:59;;;;;;;0.73;0.30;;;17.30;99.90;;;;;;4991693;28;20117;-78
2023/07/27 01:18:39;;;;;;;1.08;0.30;;;17.30;99.90;;;;;;4994004;28;20187;-78
2023/07/27 01:21:13;;;;;;;0.82;0.30;;;17.30;99.90;;;;;;4993574;28;20051;-79
2023/07/27 01:24:08;;;;;;;0.28;0.28;;;17.20;99.90;;;;;;4992783;28;20399;-79
2023/07/27 01:27:19;;;;;;;1.00;0.25;;;17.20;99.90;;;;;;4993059;28;20089;-83
2023/07/27 01:30:21;;;;;;;1.40;0.35;;;17.20;99.90;;;;;;4962444;28;20487;-78
2023/07/27 01:32:54;;;;;;;1.60;0.35;;;17.20;99.90;;;;;;4993114;28;20030;-78
2023/07/27 01:35:24;;;;;;;0.30;0.30;;;17.20;99.90;;;;;;4993229;28;20023;-78
2023/07/27 01:37:52;;;;;;;1.17;0.30;;;17.30;99.90;;;;;;4991207;28;20048;-78
2023/07/27 01:40:19;;;;;;;1.92;0.20;;;17.30;99.90;;;;;;4993254;28;20041;-78
2023/07/27 01:42:46;;;;;;;1.48;0.20;;;17.30;99.90;;;;;;4991209;28;20034;-78
2023/07/27 01:45:14;;;;;;;0.50;0.50;;;17.20;99.90;;;;;;4992769;28;20414;-77
2023/07/27 01:47:41;;;;;;;0.88;0.30;;;17.30;99.90;;;;;;4992127;28;20053;-78
2023/07/27 01:50:08;;;;;;;0.65;0.20;;;17.30;99.90;;;;;;4992474;28;20035;-77
2023/07/27 01:52:35;;;;;;;0.60;0.38;;;17.30;99.90;;;;;;4991504;28;20062;-78
2023/07/27 01:55:01;;;;;;;0.43;0.40;;;17.30;99.90;;;;;;4992563;28;20054;-78
2023/07/27 01:57:27;;;;;;;1.05;0.38;;;17.20;99.90;;;;;;4992525;28;20499;-79
2023/07/27 01:59:53;;;;;;;0.43;0.30;;;17.30;99.90;;;;;;4991167;28;20030;-79
2023/07/27 02:02:20;;;;;;;1.98;0.38;;;17.30;99.90;;;;;;4992716;28;20065;-79
2023/07/27 02:04:48;;;;;;;2.30;0.55;;;17.20;99.90;;;;;;4991148;28;20030;-79
2023/07/27 02:07:17;;;;;;;0.98;0.30;;;17.30;99.90;;;;;;4992782;28;20030;-79
2023/07/27 02:09:43;;;;;;;2.65;0.20;;;17.20;99.90;;;;;;4991858;28;20467;-79
2023/07/27 02:12:16;;;;;;;1.73;0.30;;;17.20;99.90;;;;;;4992188;28;20105;-78
2023/07/27 02:15:01;;;;;;;0.30;0.30;;;17.20;99.90;;;;;;4992283;28;20113;-80
2023/07/27 02:17:37;;;;;;;0.55;0.32;;;17.20;99.90;;;;;;4991234;28;20033;-81
2023/07/27 02:20:10;;;;;;;0.85;0.30;;;17.10;99.90;;;;;;4992528;28;20057;-78
2023/07/27 02:22:37;;;;;;;;;;;17.10;99.90;;;;;;4992610;28;20069;-80
2023/07/27 02:25:04;;;;;;;2.85;0.30;;;17.00;99.90;;;;;;4990325;28;20000;-78
2023/07/27 02:27:30;;;;;;;1.42;0.30;;;17.00;99.90;;;;;;4990389;28;20022;-78
2023/07/27 02:29:56;;;;;;;1.23;0.15;;;16.90;99.90;;;;;;4991096;28;20059;-79
2023/07/27 02:32:22;;;;;;;1.63;0.20;;;16.80;99.90;;;;;;4991871;28;20034;-78
2023/07/27 02:34:48;;;;;;;0.63;0.25;;;16.80;99.90;;;;;;4989882;28;20104;-79
2023/07/27 02:37:13;;;;;;;1.70;0.17;;;16.70;99.90;;;;;;4991998;28;20181;-78
2023/07/27 02:39:39;;;;;;;0.95;0.40;;;16.70;99.90;;;;;;4990489;28;20058;-80
2023/07/27 02:42:05;;;;;;;3.20;0.22;;;16.80;99.90;;;;;;4991425;28;20038;-79
2023/07/27 02:44:31;;;;;;;1.25;0.40;;;16.70;99.90;;;;;;4991828;28;20480;-79
2023/07/27 02:46:56;;;;;;;1.15;0.30;;;16.70;99.90;;;;;;4991092;28;20383;-79
2023/07/27 02:49:22;;;;;;;1.92;0.50;;;16.60;99.90;;;;;;4990378;28;20027;-79
2023/07/27 02:51:48;;;;;;;0.25;0.20;;;16.70;99.90;;;;;;4990640;28;20113;-79
2023/07/27 02:54:13;;;;;;;1.33;0.25;;;16.70;99.90;;;;;;4991622;28;20090;-80
2023/07/27 02:56:39;;;;;;;0.20;0.20;;;16.60;99.90;;;;;;4989985;28;20022;-82
2023/07/27 02:59:05;;;;;;;0.80;0.30;;;16.70;99.90;;;;;;4991252;28;20049;-80
2023/07/27 03:01:30;;;;;;;0.25;0.15;;;16.60;99.90;;;;;;4991533;28;20475;-80
2023/07/27 03:03:56;;;;;;;2.92;0.43;;;16.60;99.90;;;;;;4991308;28;20058;-80
2023/07/27 03:06:22;;;;;;;0.43;0.30;;;16.60;99.90;;;;;;4992292;28;20026;-80
2023/07/27 03:08:47;;;;;;;0.40;0.25;;;16.60;99.90;;;;;;4991670;28;20026;-79
2023/07/27 03:11:13;;;;;;;1.55;0.50;;;16.60;99.90;;;;;;4990832;28;20057;-79
2023/07/27 03:13:39;;;;;;;0.95;0.20;;;16.60;99.90;;;;;;4992046;28;20050;-79
2023/07/27 03:16:05;;;;;;;2.67;0.60;;;16.60;99.90;;;;;;4991414;28;20359;-80
2023/07/27 03:18:31;;;;;;;0.98;0.22;;;16.60;99.90;;;;;;4991734;28;20027;-79
2023/07/27 03:20:56;;;;;;;3.00;0.50;;;16.50;99.90;;;;;;4991225;28;20518;-80
2023/07/27 03:23:22;;;;;;;0.32;0.30;;;16.50;99.90;;;;;;4991142;28;20419;-80
2023/07/27 03:25:48;;;;;;;1.55;0.28;;;16.50;99.90;;;;;;4990794;28;20023;-80
2023/07/27 03:28:13;;;;;;;0.80;0.38;;;16.50;99.90;;;;;;4990686;28;20120;-80
2023/07/27 03:30:39;;;;;;;0.98;0.20;;;16.50;99.90;;;;;;4991113;28;20026;-80
2023/07/27 03:33:06;;;;;;;0.45;0.10;;;16.50;99.90;;;;;;4990664;28;20478;-80
2023/07/27 03:35:34;;;;;;;0.32;0.20;;;16.50;99.90;;;;;;4991099;28;20030;-80
2023/07/27 03:38:00;;;;;;;0.20;0.15;;;16.40;99.90;;;;;;4990674;28;20088;-80
2023/07/27 03:40:26;;;;;;;0.68;0.25;;;16.50;99.90;;;;;;4991130;28;20069;-79
2023/07/27 03:42:52;;;;;;;2.30;0.30;;;16.50;99.90;;;;;;4990089;28;20033;-79
2023/07/27 03:45:17;;;;;;;0.60;0.10;;;16.50;99.90;;;;;;4989675;28;20038;-79
2023/07/27 03:47:44;;;;;;;1.80;0.38;;;16.50;99.90;;;;;;4990580;28;20093;-82
2023/07/27 03:50:10;;;;;;;1.40;0.30;;;16.50;99.90;;;;;;4990966;28;20110;-80
2023/07/27 03:52:36;;;;;;;0.68;0.38;;;16.50;99.90;;;;;;4989296;28;20137;-80
2023/07/27 03:55:03;;;;;;;2.13;0.30;;;16.40;99.90;;;;;;4990229;28;20416;-80
2023/07/27 03:57:28;;;;;;;0.38;0.30;;;16.50;99.90;;;;;;4991022;28;20062;-80
2023/07/27 03:59:55;;;;;;;3.20;0.43;;;16.40;99.90;;;;;;4990130;28;20069;-80
2023/07/27 04:02:22;;;;;;;2.65;0.30;;;16.40;99.90;;;;;;4990964;28;20387;-79
2023/07/27 04:04:48;;;;;;;1.35;0.20;;;16.40;99.90;;;;;;4993459;28;20026;-80
2023/07/27 04:07:13;;;;;;;0.57;0.30;;;16.40;99.90;;;;;;4995126;28;20185;-79
2023/07/27 04:09:39;;;;;;;0.52;0.20;;;16.40;99.90;;;;;;4994748;28;20427;-79
2023/07/27 04:12:05;;;;;;;0.10;0.10;;;16.50;99.90;;;;;;4992501;28;20075;-79
2023/07/27 04:14:31;;;;;;;0.43;0.10;;;16.50;99.90;;;;;;4994676;28;20088;-79
2023/07/27 04:16:57;;;;;;;1.90;0.20;;;16.50;99.90;;;;;;4994193;28;20027;-78
2023/07/27 04:19:22;;;;;;;0.95;0.35;;;16.50;99.90;;;;;;4994708;28;20448;-80
2023/07/27 04:21:48;;;;;;;0.32;0.10;;;16.50;99.90;;;;;;4994322;28;20031;-80
2023/07/27 04:24:14;;;;;;;0.52;0.20;;;16.50;99.90;;;;;;4994445;28;20061;-80
2023/07/27 04:26:40;;;;;;;1.30;0.15;;;16.50;99.90;;;;;;4994588;28;20092;-79
2023/07/27 04:29:05;;;;;;;1.08;0.40;;;16.50;99.90;;;;;;4993434;28;20290;-79
2023/07/27 04:31:31;;;;;;;1.42;0.13;;;16.50;99.90;;;;;;4994409;28;20094;-79
2023/07/27 04:33:57;;;;;;;0.50;0.30;;;16.40;99.90;;;;;;4993645;28;20077;-79
2023/07/27 04:36:22;;;;;;;2.67;0.20;;;16.40;99.90;;;;;;4994348;28;20050;-79
2023/07/27 04:38:48;;;;;;;0.68;0.30;;;16.40;99.90;;;;;;4993334;28;20411;-81
2023/07/27 04:41:14;;;;;;;0.28;0.28;;;16.40;99.90;;;;;;4993973;28;20423;-79
2023/07/27 04:43:39;;;;;;;1.65;0.30;;;16.40;99.90;;;;;;4993550;28;20125;-79
2023/07/27 04:46:05;;;;;;;0.10;0.10;;;16.40;99.90;;;;;;4993697;28;20768;-80
2023/07/27 04:48:31;;;;;;;0.30;0.30;;;16.40;99.90;;;;;;4993673;28;20336;-79
2023/07/27 04:50:57;;;;;;;1.85;0.47;;;16.40;99.90;;;;;;4993402;28;20037;-79
2023/07/27 04:53:23;;;;;;;0.80;0.30;;;16.40;99.90;;;;;;4993562;28;20030;-80
2023/07/27 04:55:48;;;;;;;2.38;0.32;;;16.40;99.90;;;;;;4993321;28;20384;-83
2023/07/27 04:58:14;;;;;;;0.90;0.10;;;16.40;99.90;;;;;;4992425;28;20030;-80
2023/07/27 05:00:40;;;;;;;0.40;0.30;;;16.40;99.90;;;;;;4993192;28;20098;-80
2023/07/27 05:03:05;;;;;;;2.20;0.40;;;16.40;99.90;;;;;;4993206;28;20030;-79
2023/07/27 05:05:31;;;;;;;0.68;0.40;;;16.40;99.90;;;;;;4993590;28;20411;-79
2023/07/27 05:07:57;;;;;;;0.82;0.30;;;16.40;99.90;;;;;;4993679;28;20026;-80
2023/07/27 05:10:23;;;;;;;0.32;0.20;;;16.40;99.90;;;;;;4993390;28;20334;-79
2023/07/27 05:12:50;;;;;;;0.30;0.30;;;16.50;99.90;;;;;;4991919;28;20101;-83
2023/07/27 05:15:15;;;;;;;0.50;0.50;;;16.40;99.90;;;;;;4993016;28;20089;-79
2023/07/27 05:17:41;;;;;;;0.55;0.40;;;16.40;99.90;;;;;;4993271;28;20387;-79
2023/07/27 05:20:07;;;;;;;1.20;0.20;;;16.40;99.90;;;;;;4993246;28;20023;-79
2023/07/27 05:22:33;;;;;;;1.05;0.30;;;16.40;99.90;;;;;;4993153;28;20137;-79
2023/07/27 05:24:59;;;;;;;0.98;0.25;;;16.50;99.90;;;;;;4992747;28;20062;-79
2023/07/27 05:27:25;;;;;;;1.48;0.30;;;16.50;99.90;;;;;;4993181;28;20058;-79
2023/07/27 05:29:51;;;;;;;1.60;0.25;;;16.50;99.90;;;;;;4993072;28;20026;-83
2023/07/27 05:32:16;;;;;;;0.40;0.20;;;16.50;99.90;;;;;;4993354;28;20554;-79
2023/07/27 05:34:42;;;;;;;0.80;0.10;;;16.50;99.90;;;;;;4993261;28;20026;-79
2023/07/27 05:37:08;;;;;;;1.45;0.30;;;16.50;99.90;;;;;;4992648;28;20026;-79
2023/07/27 05:39:33;;;;;;;0.93;0.30;;;16.50;99.90;;;;;;4992873;28;20133;-79
2023/07/27 05:41:59;;;;;;;0.88;0.22;;;16.50;99.90;;;;;;4992467;28;20109;-79
2023/07/27 05:44:25;;;;;;;0.80;0.30;;;16.60;99.90;;;;;;4992768;28;20034;-79
2023/07/27 05:46:54;;;;;;;0.30;0.30;;;16.60;99.90;;;;;;4992881;28;20023;-83
2023/07/27 05:49:20;;;;;;;1.52;0.50;;;16.60;99.90;;;;;;4992735;28;20122;-78
2023/07/27 05:51:46;;;;;;;0.30;0.30;;;16.60;99.90;;;;;;4992810;28;20113;-79
2023/07/27 05:54:12;;;;;;;3.03;0.30;;;16.60;99.90;;;;;;4990780;28;20085;-79
2023/07/27 05:56:38;;;;;;;1.13;0.30;;;16.60;99.90;;;;;;4992747;28;20027;-80
2023/07/27 05:59:03;;;;;;;0.10;0.10;;;16.60;99.90;;;;;;4990738;28;20037;-79
2023/07/27 06:01:29;;;;;;;1.05;0.30;;;16.60;99.90;;;;;;4992647;28;20037;-79
2023/07/27 06:03:55;;;;;;;0.30;0.30;;;16.60;99.90;;;;;;4992034;28;20030;-80
2023/07/27 06:06:20;;;;;;;0.60;0.30;;;16.60;99.90;;;;;;4994332;28;20105;-79
2023/07/27 06:08:46;;;;;;;4.70;0.50;;;16.60;99.90;;;;;;4993005;28;20026;-79
2023/07/27 06:11:12;;;;;;;1.10;0.38;;;16.60;99.90;;;;;;4992446;28;20033;-80
2023/07/27 06:13:37;;;;;;;0.25;0.20;;;16.60;99.90;;;;;;4991252;28;20137;-80
2023/07/27 06:16:03;;;;;;;1.00;0.30;;;16.60;99.90;;;;;;4992421;28;20022;-79
2023/07/27 06:18:30;;;;;;;0.30;0.20;;;16.70;99.90;;;;;;4992711;28;20018;-79
2023/07/27 06:20:57;;;;;;;2.55;0.45;;;16.70;99.90;;;;;;4992379;28;20034;-80
2023/07/27 06:23:23;;;;;;;0.57;0.45;;;16.70;99.90;;;;;;4992675;28;20073;-79
2023/07/27 06:25:49;;;;;;;0.60;0.40;;;16.80;99.90;;;;;;4991807;28;20062;-80
2023/07/27 06:28:15;;;;;;;2.03;0.22;;;16.80;99.90;;;;;;4990786;28;20030;-81
2023/07/27 06:30:41;;;;;;;3.08;0.30;;;16.80;99.90;;;;;;4991954;28;20381;-81
2023/07/27 06:33:07;;;;;;;0.17;0.17;;;16.80;99.90;;;;;;4990959;28;20068;-82
2023/07/27 06:35:33;;;;;;;0.40;0.40;;;16.80;99.90;;;;;;4992852;28;20067;-80
2023/07/27 06:37:59;;;;;;;0.85;0.40;;;16.80;99.90;;;;;;4991829;28;20049;-81
2023/07/27 06:40:25;;;;;;;0.70;0.52;;;16.90;99.90;;;;;;4992047;28;20030;-80
2023/07/27 06:42:51;;;;;;;2.17;0.52;;;16.90;99.90;;;;;;4991925;28;20023;-81
2023/07/27 06:45:17;;;;;;;0.80;0.80;;;16.90;99.90;;;;;;4991535;28;20041;-81
2023/07/27 06:47:43;;;;;;;2.58;0.80;;;17.00;99.90;;;;;;4990840;28;20029;-80
2023/07/27 06:50:09;;;;;;;0.75;0.50;;;17.00;99.90;;;;;;4989836;28;20066;-80
2023/07/27 06:52:35;;;;;;;3.50;0.50;;;17.20;99.90;;;;;;4992606;28;20065;-80
2023/07/27 06:55:00;;;;;;;0.40;0.40;;;17.30;99.90;;;;;;4991254;28;20438;-81
2023/07/27 06:57:27;;;;;;;1.83;0.50;;;17.40;99.90;;;;;;4992231;28;20404;-80
2023/07/27 06:59:52;;;;;;;0.82;0.55;;;17.30;99.90;;;;;;4992135;28;20347;-80
2023/07/27 07:02:18;;;;;;;0.40;0.22;;;17.40;99.90;;;;;;4992191;28;20033;-81
2023/07/27 07:04:45;;;;;;;1.80;0.40;;;17.30;99.90;;;;;;4992550;28;20439;-80
2023/07/27 07:07:11;;;;;;;2.10;0.70;;;17.40;99.90;;;;;;4991652;28;20068;-81
2023/07/27 07:09:38;;;;;;;0.77;0.30;;;17.50;99.90;;;;;;4992177;28;20026;-79
2023/07/27 07:12:05;;;;;;;0.68;0.40;;;17.50;99.90;;;;;;4991008;28;20133;-81
2023/07/27 07:14:31;;;;;;;0.25;0.20;;;17.50;99.90;;;;;;4991625;28;20034;-82
2023/07/27 07:16:57;;;;;;;2.10;0.80;;;17.50;99.90;;;;;;4989870;28;20022;-85
2023/07/27 07:35:59;;;;;;;0.70;0.55;;;17.70;99.90;;;;;;5118318;23;21767;-80
2023/07/27 07:38:25;;;;;;;0.50;0.50;;;17.60;99.90;;;;;;4989869;28;20135;-80
2023/07/27 07:40:51;;;;;;;1.25;0.47;;;17.60;99.90;;;;;;5000982;28;20196;-86
2023/07/27 07:43:17;;;;;;;0.50;0.50;;;17.60;99.90;;;;;;5005338;28;20061;-85
2023/07/27 07:45:43;;;;;;;1.10;0.50;;;17.70;99.90;;;;;;5001673;28;20096;-87
2023/07/27 07:48:09;;;;;;;0.85;0.30;;;17.70;99.90;;;;;;4991606;28;20030;-87
2023/07/27 07:50:39;;;;;;;0.85;0.40;;;17.80;99.90;;;;;;4991270;28;20062;-78
2023/07/27 07:53:07;;;;;;;0.38;0.30;;;17.90;99.90;;;;;;4990681;28;20026;-77
2023/07/27 07:55:37;;;;;;;0.73;0.25;;;18.00;99.90;;;;;;4990284;28;20030;-78
2023/07/27 07:58:03;;;;;;;1.80;0.40;;;18.00;99.90;;;;;;4990309;28;20077;-77
2023/07/27 08:00:29;;;;;;;0.75;0.55;;;18.00;99.90;;;;;;4990159;28;20228;-79
2023/07/27 08:02:54;;;;;;;0.57;0.40;;;18.10;99.90;;;;;;4990488;28;20030;-78
2023/07/27 08:05:20;;;;;;;0.43;0.40;;;18.10;99.90;;;;;;4990273;28;20034;-81
2023/07/27 08:07:46;;;;;;;0.98;0.60;;;18.20;99.90;;;;;;4988752;28;20196;-80
2023/07/27 08:10:12;;;;;;;0.63;0.40;;;18.20;99.90;;;;;;4989935;28;20115;-79
2023/07/27 08:12:38;;;;;;;3.03;0.60;;;18.10;99.90;;;;;;4990318;28;20034;-79
2023/07/27 08:15:05;;;;;;;4.72;0.73;;;18.10;99.90;;;;;;4988999;28;20034;-79
2023/07/27 08:17:31;;;;;;;1.75;0.80;;;18.20;99.90;;;;;;4980534;28;20031;-77
2023/07/27 08:19:57;;;;;;;1.75;0.85;;;18.30;99.90;;;;;;4971032;28;20126;-78
2023/07/27 08:22:23;;;;;;;0.65;0.52;;;18.30;99.90;;;;;;4970631;28;20037;-77
2023/07/27 08:24:50;;;;;;;0.45;0.40;;;18.40;99.90;;;;;;4969675;28;20047;-78
2023/07/27 08:27:16;;;;;;;1.08;0.70;;;18.40;99.90;;;;;;4969680;28;20483;-76
2023/07/27 08:29:41;;;;;;;0.50;0.43;;;18.40;99.90;;;;;;4970386;28;20023;-77
2023/07/27 08:32:07;;;;;;;0.63;0.50;;;18.40;99.90;;;;;;4970595;28;20137;-79
2023/07/27 08:34:33;;;;;;;0.75;0.60;;;18.40;99.90;;;;;;4970589;28;20039;-78
2023/07/27 08:36:59;;;;;;;1.48;0.70;;;18.50;99.90;;;;;;4969098;28;20468;-78
2023/07/27 08:39:24;;;;;;;2.20;0.80;;;18.50;99.90;;;;;;4970859;28;20035;-78
2023/07/27 08:41:51;;;;;;;0.57;0.40;;;18.60;99.90;;;;;;4971129;28;20152;-78
2023/07/27 08:44:17;;;;;;;1.48;0.47;;;18.50;99.90;;;;;;4970406;28;20035;-78
2023/07/27 08:46:43;;;;;;;0.77;0.60;;;18.50;99.90;;;;;;4970415;28;20055;-77
2023/07/27 08:49:13;;;;;;;2.67;0.88;;;18.40;99.90;;;;;;4971014;28;20478;-81
2023/07/27 08:51:43;;;;;;;1.50;0.93;;;18.40;99.90;;;;;;4974147;28;20033;-79
2023/07/27 08:54:09;;;;;;;2.90;1.50;;;18.40;99.90;;;;;;4972432;28;20035;-81
2023/07/27 08:56:35;;;;;;;5.00;1.95;;;18.40;99.90;;;;;;4974369;28;20037;-78
2023/07/27 08:59:01;;;;;;;1.58;1.27;;;18.50;99.90;;;;;;4974009;28;20110;-79
2023/07/27 09:01:27;;;;;;;1.30;1.00;;;18.60;99.90;;;;;;4972095;28;20102;-80
2023/07/27 09:03:53;;;;;;;0.93;0.75;;;18.70;99.90;;;;;;4973215;28;20126;-79
2023/07/27 09:06:46;;;;;;;1.38;0.93;;;18.80;99.90;;;;;;4983371;28;20332;-79
2023/07/27 09:09:24;;;;;;;2.20;1.20;;;18.90;99.90;;;;;;4993323;28;20488;-80
2023/07/27 09:11:54;;;;;;;3.33;1.20;;;19.10;99.90;;;;;;4994259;28;20026;-78
2023/07/27 09:14:20;;;;;;;2.88;1.60;;;19.20;99.90;;;;;;4993792;28;20046;-79
2023/07/27 09:16:47;;;;;;;1.73;1.35;;;19.20;99.90;;;;;;4993652;28;20026;-80
2023/07/27 09:19:15;;;;;;;1.95;0.90;;;19.20;99.90;;;;;;4993216;28;20026;-81
2023/07/27 09:21:46;;;;;;;0.75;0.70;;;19.10;99.90;;;;;;4991934;28;20045;-79
2023/07/27 09:24:13;;;;;;;1.10;0.52;;;19.10;99.90;;;;;;4991790;28;20081;-82
2023/07/27 09:26:46;;;;;;;1.67;0.75;;;19.00;99.90;;;;;;4993570;28;20085;-79
2023/07/27 09:29:14;;;;;;;2.03;0.82;;;19.00;99.90;;;;;;4991713;28;20073;-82
2023/07/27 09:31:50;;;;;;;0.73;0.73;;;19.20;99.90;;;;;;4991868;28;20162;-79
2023/07/27 09:34:18;;;;;;;1.83;0.60;;;19.20;99.90;;;;;;4991306;28;20030;-79
2023/07/27 09:36:45;;;;;;;0.77;0.75;;;19.30;99.90;;;;;;4993204;28;20086;-80
2023/07/27 09:39:11;;;;;;;0.93;0.60;;;19.40;99.90;;;;;;4991659;28;20520;-79
2023/07/27 09:41:37;;;;;;;0.68;0.68;;;19.50;99.90;;;;;;4992704;28;20177;-80
2023/07/27 09:44:05;;;;;;;0.93;0.52;;;19.60;99.90;;;;;;4992791;28;20445;-79
2023/07/27 09:46:31;;;;;;;2.05;0.55;;;19.70;99.90;;;;;;4992401;28;20034;-79
2023/07/27 09:48:57;;;;;;;3.05;0.50;;;19.80;99.90;;;;;;4993011;28;20058;-79
2023/07/27 09:51:26;;;;;;;2.13;0.70;;;19.90;99.90;;;;;;4992607;28;20530;-79
2023/07/27 09:53:52;;;;;;;2.00;0.57;;;19.80;99.90;;;;;;4991333;28;20031;-80
2023/07/27 09:56:19;;;;;;;2.55;0.90;;;19.70;99.90;;;;;;4990630;28;20414;-79
2023/07/27 09:58:48;;;;;;;1.17;0.80;;;19.50;99.90;;;;;;4992396;28;20133;-79
2023/07/27 10:01:14;;;;;;;2.67;0.82;;;19.30;99.90;;;;;;4992244;28;20356;-83
2023/07/27 10:03:39;;;;;;;1.10;0.63;;;19.20;99.90;;;;;;4992441;28;20036;-80
2023/07/27 10:06:06;;;;;;;1.33;0.90;;;19.20;99.90;;;;;;4991416;28;20108;-79
2023/07/27 10:08:35;;;;;;;1.00;0.90;;;19.30;99.90;;;;;;4990654;28;20483;-80
2023/07/27 10:11:01;;;;;;;0.70;0.70;;;19.30;99.90;;;;;;4991295;28;20034;-79
2023/07/27 10:13:27;;;;;;;1.88;0.75;;;19.40;99.90;;;;;;4992146;28;20325;-79
2023/07/27 10:15:55;;;;;;;2.60;0.77;;;19.50;99.90;;;;;;4992960;28;20113;-80
2023/07/27 10:18:25;;;;;;;0.90;0.90;;;19.60;99.90;;;;;;4990512;28;20057;-80
2023/07/27 10:20:53;;;;;;;2.78;0.88;;;19.70;99.90;;;;;;4991149;28;20048;-80
2023/07/27 10:23:27;;;;;;;0.60;0.60;;;19.70;99.90;;;;;;4990440;28;20479;-80
2023/07/27 10:25:56;;;;;;;2.03;0.73;;;19.80;99.90;;;;;;4992536;28;20026;-80
2023/07/27 10:28:39;;;;;;;0.88;0.75;;;19.90;99.90;;;;;;4990679;28;20060;-80
2023/07/27 10:31:14;;;;;;;0.80;0.60;;;20.10;99.90;;;;;;4992467;28;20109;-81
2023/07/27 10:34:02;;;;;;;1.42;0.90;;;20.10;99.90;;;;;;4991737;28;20087;-80
2023/07/27 10:36:58;;;;;;;1.48;0.68;;;20.30;99.90;;;;;;4991792;28;20333;-78
2023/07/27 10:39:26;;;;;;;0.80;0.80;;;20.30;99.90;;;;;;4991706;28;20057;-81
2023/07/27 10:42:07;;;;;;;0.80;0.70;;;20.30;99.90;;;;;;4991983;28;20559;-81
2023/07/27 10:44:43;;;;;;;1.98;1.10;;;20.40;99.90;;;;;;4991290;28;20034;-79
2023/07/27 10:47:12;;;;;;;2.20;1.02;;;20.60;99.90;;;;;;4991945;28;20153;-79
2023/07/27 10:49:46;;;;;;;1.02;0.90;;;20.70;99.90;;;;;;4991442;28;20153;-79
2023/07/27 10:52:17;;;;;;;0.90;0.90;;;20.70;99.90;;;;;;4991937;28;20035;-78
2023/07/27 10:54:44;;;;;;;1.60;1.20;;;20.80;99.90;;;;;;4991480;28;20467;-81
2023/07/27 10:57:13;;;;;;;1.23;1.13;;;20.90;99.90;;;;;;4993979;28;20037;-86
2023/07/27 10:59:41;;;;;;;1.60;1.05;;;21.10;99.90;;;;;;4994039;28;20101;-86
2023/07/27 11:02:17;;;;;;;1.77;0.80;;;21.20;99.90;;;;;;4993332;28;20080;-80
2023/07/27 11:04:43;;;;;;;1.42;1.05;;;21.30;99.90;;;;;;4992172;28;20137;-83
2023/07/27 11:07:10;;;;;;;1.40;0.70;;;21.30;99.90;;;;;;4993724;28;20449;-83
2023/07/27 11:09:37;;;;;;;0.65;0.65;;;21.30;99.90;;;;;;4991099;28;20030;-82
2023/07/27 11:12:04;;;;;;;0.90;0.90;;;21.40;99.90;;;;;;4992501;28;20031;-88
2023/07/27 11:14:30;;;;;;;1.85;0.95;;;21.60;99.90;;;;;;4990684;28;20108;-88
2023/07/27 11:16:59;;;;;;;0.90;0.80;;;21.60;99.90;;;;;;4991005;28;20065;-87
2023/07/27 11:19:26;;;;;;;0.80;0.80;;;21.60;99.90;;;;;;4991612;28;20023;-83
2023/07/27 11:21:53;;;;;;;1.33;0.80;;;21.60;99.90;;;;;;4991859;28;20026;-83
2023/07/27 11:24:19;;;;;;;1.77;1.20;;;21.60;99.90;;;;;;4991447;28;20418;-82
2023/07/27 11:26:45;;;;;;;0.95;0.90;;;21.60;99.90;;;;;;4989814;28;20033;-84
2023/07/27 11:29:11;;;;;;;1.55;1.30;;;21.50;99.90;;;;;;4992024;28;20034;-87
2023/07/27 11:31:37;;;;;;;1.98;1.10;;;21.40;99.90;;;;;;4991672;28;20125;-90
2023/07/27 11:34:04;;;;;;;1.00;1.00;;;21.30;99.90;;;;;;4990784;28;20428;-89
2023/07/27 11:36:31;;;;;;;1.10;0.93;;;21.40;99.90;;;;;;4991704;28;20129;-86
2023/07/27 11:38:58;;;;;;;2.33;0.93;;;21.40;99.90;;;;;;4992341;28;20113;-80
2023/07/27 11:41:29;;;;;;;2.05;1.30;;;21.40;99.90;;;;;;4991206;28;20057;-81
2023/07/27 11:43:56;;;;;;;1.88;1.02;;;21.40;99.90;;;;;;4991652;28;20542;-80
2023/07/27 11:46:26;;;;;;;1.02;0.90;;;21.40;99.90;;;;;;4990928;28;20026;-86
2023/07/27 11:49:18;;;;;;;1.45;1.20;;;21.30;99.90;;;;;;4991841;28;20027;-87
2023/07/27 11:51:45;;;;;;;1.85;0.90;;;21.20;99.90;;;;;;4993806;28;20014;-85
2023/07/27 11:54:24;;;;;;;1.17;0.93;;;21.10;99.90;;;;;;5004537;28;20121;-85
2023/07/27 11:56:54;;;;;;;5.47;1.80;;;21.00;99.90;;;;;;5007579;28;20019;-85
2023/07/27 11:59:21;;;;;;;1.30;1.20;;;21.00;99.90;;;;;;5009111;28;20352;-84
2023/07/27 12:01:51;;;;;;;2.35;1.15;;;21.10;99.90;;;;;;5007748;28;20019;-84
2023/07/27 12:04:19;;;;;;;0.98;0.98;;;21.20;99.90;;;;;;5000270;28;20407;-84
2023/07/27 12:06:45;;;;;;;1.40;0.93;;;21.30;99.90;;;;;;4991616;28;20100;-88
2023/07/27 12:09:11;;;;;;;1.25;1.10;;;21.40;99.90;;;;;;4992572;28;20056;-86
2023/07/27 12:11:38;;;;;;;2.88;1.00;;;21.50;99.90;;;;;;4993016;28;20355;-88
2023/07/27 12:14:05;;;;;;;1.42;0.90;;;21.70;99.90;;;;;;4994276;28;20037;-87
2023/07/27 12:16:39;;;;;;;0.80;0.80;;;21.80;99.90;;;;;;4994449;28;20481;-88
2023/07/27 12:19:30;;;;;;;0.98;0.98;;;21.80;99.90;;;;;;4990494;28;20133;-86
2023/07/27 12:21:56;;;;;;;1.52;0.93;;;21.50;99.90;;;;;;4988916;28;20042;-88
2023/07/27 12:24:22;;;;;;;1.75;1.00;;;21.70;99.90;;;;;;4994904;28;20443;-88
2023/07/27 12:26:48;;;;;;;1.30;1.20;;;21.60;99.90;;;;;;4997330;28;20029;-89
2023/07/27 12:29:13;;;;;;;1.30;1.10;;;21.60;99.90;;;;;;4995027;28;20417;-89
2023/07/27 12:31:39;;;;;;;1.33;0.93;;;21.60;99.90;;;;;;4994598;28;20431;-87
2023/07/27 12:34:05;;;;;;;1.67;1.02;;;21.50;99.90;;;;;;4995032;28;20026;-87
2023/07/27 12:36:32;;;;;;;1.67;0.80;;;21.30;99.90;;;;;;4994449;28;20050;-87
2023/07/27 12:38:58;;;;;;;3.30;1.10;;;21.30;99.90;;;;;;4994298;28;20023;-86
2023/07/27 12:41:24;;;;;;;2.25;1.13;;;21.30;99.90;;;;;;4994618;28;20034;-86
2023/07/27 12:43:50;;;;;;;1.23;1.00;;;21.30;99.90;;;;;;4994716;28;20125;-83
2023/07/27 12:46:15;;;;;;;1.00;1.00;;;21.40;99.90;;;;;;4995167;28;20419;-85
2023/07/27 12:48:41;;;;;;;1.23;1.13;;;21.50;99.90;;;;;;4994605;28;20105;-85
2023/07/27 12:51:07;;;;;;;1.67;0.90;;;21.50;99.90;;;;;;4994973;28;20026;-82
2023/07/27 12:53:33;;;;;;;2.22;1.30;;;21.60;99.90;;;;;;4994235;28;20034;-87
2023/07/27 12:55:59;;;;;;;1.92;0.88;;;21.80;99.90;;;;;;4994091;28;20038;-83
2023/07/27 12:58:25;;;;;;;0.70;0.70;;;22.10;99.90;;;;;;4994563;28;20072;-85
2023/07/27 13:00:50;;;;;;;1.00;0.88;;;22.30;99.90;;;;;;4993486;28;20375;-84
2023/07/27 13:03:16;;;;;;;1.83;0.90;;;22.40;99.90;;;;;;4995073;28;20033;-85
2023/07/27 13:05:42;;;;;;;1.20;1.10;;;22.30;99.90;;;;;;4993941;28;20117;-84